sensor_id;sensor_type;location;lat;lon;timestamp;pressure;altitude;pressure_sealevel;temperature;humidity
34374;BME280;20637;55.770;37.592;2023-11-19T00:00:05;100617.56;;;-3.14;60.66
34374;BME280;20637;55.770;37.592;2023-11-19T00:02:32;100608.44;;;-3.06;60.81
34374;BME280;20637;55.770;37.592;2023-11-19T00:04:58;100613.66;;;-3.04;60.13
34374;BME280;20637;55.770;37.592;2023-11-19T00:07:23;100602.91;;;-3.00;60.23
34374;BME280;20637;55.770;37.592;2023-11-19T00:09:49;100596.63;;;-2.97;60.02
34374;BME280;20637;55.770;37.592;2023-11-19T00:12:15;100605.50;;;-2.98;60.12
34374;BME280;20637;55.770;37.592;2023-11-19T00:14:40;100594.06;;;-2.99;60.25
34374;BME280;20637;55.770;37.592;2023-11-19T00:17:06;100592.50;;;-3.04;60.24
34374;BME280;20637;55.770;37.592;2023-11-19T00:19:31;100592.63;;;-3.07;60.13
34374;BME280;20637;55.770;37.592;2023-11-19T00:21:57;100583.06;;;-3.10;60.29
34374;BME280;20637;55.770;37.592;2023-11-19T00:24:27;100590.16;;;-3.12;60.36
34374;BME280;20637;55.770;37.592;2023-11-19T00:26:53;100587.81;;;-3.19;60.58
34374;BME280;20637;55.770;37.592;2023-11-19T00:29:19;100596.88;;;-3.25;60.88
34374;BME280;20637;55.770;37.592;2023-11-19T00:31:45;100585.66;;;-3.31;60.27
34374;BME280;20637;55.770;37.592;2023-11-19T00:34:11;100591.19;;;-3.38;60.89
34374;BME280;20637;55.770;37.592;2023-11-19T00:36:37;100593.81;;;-3.38;61.27
34374;BME280;20637;55.770;37.592;2023-11-19T00:39:02;100592.09;;;-3.39;61.15
34374;BME280;20637;55.770;37.592;2023-11-19T00:41:28;100581.69;;;-3.43;60.82
34374;BME280;20637;55.770;37.592;2023-11-19T00:43:54;100580.00;;;-3.44;60.84
34374;BME280;20637;55.770;37.592;2023-11-19T00:46:19;100580.09;;;-3.47;61.16
34374;BME280;20637;55.770;37.592;2023-11-19T00:48:45;100584.47;;;-3.46;61.76
34374;BME280;20637;55.770;37.592;2023-11-19T00:51:12;100577.53;;;-3.49;61.68
34374;BME280;20637;55.770;37.592;2023-11-19T00:53:38;100583.66;;;-3.48;61.07
34374;BME280;20637;55.770;37.592;2023-11-19T00:56:03;100575.84;;;-3.51;61.87
34374;BME280;20637;55.770;37.592;2023-11-19T00:58:29;100579.41;;;-3.52;61.91
34374;BME280;20637;55.770;37.592;2023-11-19T01:00:54;100576.06;;;-3.57;61.89
34374;BME280;20637;55.770;37.592;2023-11-19T01:03:22;100572.81;;;-3.64;61.21
34374;BME280;20637;55.770;37.592;2023-11-19T01:05:48;100564.91;;;-3.64;61.58
34374;BME280;20637;55.770;37.592;2023-11-19T01:08:13;100562.31;;;-3.65;61.13
34374;BME280;20637;55.770;37.592;2023-11-19T01:10:40;100556.97;;;-3.64;61.22
34374;BME280;20637;55.770;37.592;2023-11-19T01:13:05;100555.94;;;-3.60;61.56
34374;BME280;20637;55.770;37.592;2023-11-19T01:15:34;100549.72;;;-3.59;62.10
34374;BME280;20637;55.770;37.592;2023-11-19T01:17:59;100550.72;;;-3.61;61.51
34374;BME280;20637;55.770;37.592;2023-11-19T01:20:27;100550.75;;;-3.63;61.59
34374;BME280;20637;55.770;37.592;2023-11-19T01:22:54;100551.63;;;-3.62;61.65
34374;BME280;20637;55.770;37.592;2023-11-19T01:25:19;100547.16;;;-3.60;62.12
34374;BME280;20637;55.770;37.592;2023-11-19T01:27:45;100547.09;;;-3.59;61.36
34374;BME280;20637;55.770;37.592;2023-11-19T01:30:10;100537.47;;;-3.60;61.93
34374;BME280;20637;55.770;37.592;2023-11-19T01:32:38;100539.19;;;-3.59;61.89
34374;BME280;20637;55.770;37.592;2023-11-19T01:35:05;100534.84;;;-3.60;62.20
34374;BME280;20637;55.770;37.592;2023-11-19T01:37:31;100536.63;;;-3.60;61.50
34374;BME280;20637;55.770;37.592;2023-11-19T01:39:57;100536.50;;;-3.57;61.23
34374;BME280;20637;55.770;37.592;2023-11-19T01:42:23;100531.09;;;-3.54;61.67
34374;BME280;20637;55.770;37.592;2023-11-19T01:44:59;100532.94;;;-3.56;61.33
34374;BME280;20637;55.770;37.592;2023-11-19T01:47:26;100537.47;;;-3.60;61.61
34374;BME280;20637;55.770;37.592;2023-11-19T01:49:52;100531.38;;;-3.62;61.91
34374;BME280;20637;55.770;37.592;2023-11-19T01:52:18;100536.66;;;-3.62;60.93
34374;BME280;20637;55.770;37.592;2023-11-19T01:54:44;100524.50;;;-3.66;60.95
34374;BME280;20637;55.770;37.592;2023-11-19T01:57:11;100536.09;;;-3.70;61.20
34374;BME280;20637;55.770;37.592;2023-11-19T01:59:38;100527.38;;;-3.72;61.89
34374;BME280;20637;55.770;37.592;2023-11-19T02:02:04;100530.06;;;-3.73;61.76
34374;BME280;20637;55.770;37.592;2023-11-19T02:04:30;100523.91;;;-3.74;61.06
34374;BME280;20637;55.770;37.592;2023-11-19T02:06:56;100532.69;;;-3.73;61.65
34374;BME280;20637;55.770;37.592;2023-11-19T02:09:23;100535.28;;;-3.72;61.63
34374;BME280;20637;55.770;37.592;2023-11-19T02:11:48;100533.44;;;-3.70;61.28
34374;BME280;20637;55.770;37.592;2023-11-19T02:14:22;100538.69;;;-3.68;61.92
34374;BME280;20637;55.770;37.592;2023-11-19T02:16:49;100532.41;;;-3.66;62.38
34374;BME280;20637;55.770;37.592;2023-11-19T02:19:14;100530.63;;;-3.65;61.62
34374;BME280;20637;55.770;37.592;2023-11-19T02:22:00;100526.47;;;-3.71;61.88
34374;BME280;20637;55.770;37.592;2023-11-19T02:24:26;100528.25;;;-3.71;62.14
34374;BME280;20637;55.770;37.592;2023-11-19T02:27:05;100529.91;;;-3.69;61.30
34374;BME280;20637;55.770;37.592;2023-11-19T02:29:33;100536.81;;;-3.66;61.58
34374;BME280;20637;55.770;37.592;2023-11-19T02:32:00;100535.22;;;-3.70;61.81
34374;BME280;20637;55.770;37.592;2023-11-19T02:34:28;100525.53;;;-3.70;62.08
34374;BME280;20637;55.770;37.592;2023-11-19T02:36:54;100525.53;;;-3.70;61.31
34374;BME280;20637;55.770;37.592;2023-11-19T02:39:19;100524.56;;;-3.67;61.86
34374;BME280;20637;55.770;37.592;2023-11-19T02:41:47;100519.00;;;-3.60;61.96
34374;BME280;20637;55.770;37.592;2023-11-19T02:44:12;100525.06;;;-3.58;61.56
34374;BME280;20637;55.770;37.592;2023-11-19T02:46:38;100527.78;;;-3.59;61.68
34374;BME280;20637;55.770;37.592;2023-11-19T02:49:07;100521.66;;;-3.60;61.91
34374;BME280;20637;55.770;37.592;2023-11-19T02:51:32;100520.53;;;-3.54;61.54
34374;BME280;20637;55.770;37.592;2023-11-19T02:53:58;100517.78;;;-3.51;62.17
34374;BME280;20637;55.770;37.592;2023-11-19T02:56:23;100515.03;;;-3.48;62.35
34374;BME280;20637;55.770;37.592;2023-11-19T02:58:52;100515.59;;;-3.40;62.50
34374;BME280;20637;55.770;37.592;2023-11-19T03:01:21;100519.78;;;-3.34;62.28
34374;BME280;20637;55.770;37.592;2023-11-19T03:03:49;100505.59;;;-3.32;61.50
34374;BME280;20637;55.770;37.592;2023-11-19T03:06:20;100509.03;;;-3.30;62.11
34374;BME280;20637;55.770;37.592;2023-11-19T03:08:46;100504.53;;;-3.28;62.15
34374;BME280;20637;55.770;37.592;2023-11-19T03:11:13;100511.38;;;-3.22;61.87
34374;BME280;20637;55.770;37.592;2023-11-19T03:13:39;100496.88;;;-3.12;61.46
34374;BME280;20637;55.770;37.592;2023-11-19T03:16:05;100495.78;;;-3.07;61.56
34374;BME280;20637;55.770;37.592;2023-11-19T03:18:30;100500.88;;;-3.02;61.41
34374;BME280;20637;55.770;37.592;2023-11-19T03:20:56;100498.38;;;-3.05;61.33
34374;BME280;20637;55.770;37.592;2023-11-19T03:23:22;100499.59;;;-3.14;60.90
34374;BME280;20637;55.770;37.592;2023-11-19T03:25:48;100499.59;;;-3.14;61.53
34374;BME280;20637;55.770;37.592;2023-11-19T03:28:13;100495.81;;;-3.08;61.46
34374;BME280;20637;55.770;37.592;2023-11-19T03:30:39;100496.78;;;-3.09;60.94
34374;BME280;20637;55.770;37.592;2023-11-19T03:33:05;100500.94;;;-3.04;61.21
34374;BME280;20637;55.770;37.592;2023-11-19T03:35:31;100500.56;;;-2.95;61.00
34374;BME280;20637;55.770;37.592;2023-11-19T03:37:56;100497.84;;;-2.93;60.84
34374;BME280;20637;55.770;37.592;2023-11-19T03:40:23;100498.72;;;-2.93;61.02
34374;BME280;20637;55.770;37.592;2023-11-19T03:42:50;100498.78;;;-2.94;61.08
34374;BME280;20637;55.770;37.592;2023-11-19T03:45:15;100489.91;;;-2.93;61.03
34374;BME280;20637;55.770;37.592;2023-11-19T03:47:41;100487.19;;;-2.90;60.79
34374;BME280;20637;55.770;37.592;2023-11-19T03:50:07;100485.09;;;-2.82;60.40
34374;BME280;20637;55.770;37.592;2023-11-19T03:52:36;100486.66;;;-2.78;60.19
34374;BME280;20637;55.770;37.592;2023-11-19T03:55:01;100477.81;;;-2.77;60.79
34374;BME280;20637;55.770;37.592;2023-11-19T03:57:28;100475.34;;;-2.81;59.87
34374;BME280;20637;55.770;37.592;2023-11-19T03:59:54;100470.19;;;-2.84;60.52
34374;BME280;20637;55.770;37.592;2023-11-19T04:02:20;100474.56;;;-2.83;60.90
34374;BME280;20637;55.770;37.592;2023-11-19T04:04:46;100472.66;;;-2.80;60.46
34374;BME280;20637;55.770;37.592;2023-11-19T04:07:12;100462.03;;;-2.78;60.01
34374;BME280;20637;55.770;37.592;2023-11-19T04:09:37;100456.66;;;-2.77;60.31
34374;BME280;20637;55.770;37.592;2023-11-19T04:12:03;100451.50;;;-2.80;60.01
34374;BME280;20637;55.770;37.592;2023-11-19T04:14:29;100443.78;;;-2.84;59.81
34374;BME280;20637;55.770;37.592;2023-11-19T04:16:54;100449.88;;;-2.82;60.07
34374;BME280;20637;55.770;37.592;2023-11-19T04:19:20;100440.94;;;-2.80;60.20
34374;BME280;20637;55.770;37.592;2023-11-19T04:21:45;100438.13;;;-2.75;60.15
34374;BME280;20637;55.770;37.592;2023-11-19T04:24:12;100437.94;;;-2.71;60.06
34374;BME280;20637;55.770;37.592;2023-11-19T04:26:40;100431.69;;;-2.70;59.80
34374;BME280;20637;55.770;37.592;2023-11-19T04:29:05;100424.44;;;-2.65;59.26
34374;BME280;20637;55.770;37.592;2023-11-19T04:31:31;100428.06;;;-2.67;59.85
34374;BME280;20637;55.770;37.592;2023-11-19T04:33:56;100426.06;;;-2.62;59.81
34374;BME280;20637;55.770;37.592;2023-11-19T04:36:22;100426.69;;;-2.56;59.85
34374;BME280;20637;55.770;37.592;2023-11-19T04:38:50;100424.09;;;-2.57;59.86
34374;BME280;20637;55.770;37.592;2023-11-19T04:41:15;100433.03;;;-2.60;59.89
34374;BME280;20637;55.770;37.592;2023-11-19T04:43:41;100439.91;;;-2.56;60.45
34374;BME280;20637;55.770;37.592;2023-11-19T04:46:06;100438.31;;;-2.60;60.16
34374;BME280;20637;55.770;37.592;2023-11-19T04:48:32;100450.53;;;-2.57;60.32
34374;BME280;20637;55.770;37.592;2023-11-19T04:50:57;100447.84;;;-2.56;60.33
34374;BME280;20637;55.770;37.592;2023-11-19T04:53:23;100454.03;;;-2.57;60.32
34374;BME280;20637;55.770;37.592;2023-11-19T04:55:48;100452.72;;;-2.67;60.37
34374;BME280;20637;55.770;37.592;2023-11-19T04:58:14;100456.28;;;-2.68;60.92
34374;BME280;20637;55.770;37.592;2023-11-19T05:00:39;100456.28;;;-2.68;60.96
34374;BME280;20637;55.770;37.592;2023-11-19T05:03:05;100442.22;;;-2.68;61.08
34374;BME280;20637;55.770;37.592;2023-11-19T05:05:30;100445.72;;;-2.68;60.82
34374;BME280;20637;55.770;37.592;2023-11-19T05:07:56;100448.34;;;-2.68;60.98
34374;BME280;20637;55.770;37.592;2023-11-19T05:10:22;100441.09;;;-2.63;60.89
34374;BME280;20637;55.770;37.592;2023-11-19T05:12:47;100452.44;;;-2.61;61.20
34374;BME280;20637;55.770;37.592;2023-11-19T05:15:13;100456.28;;;-2.68;60.80
34374;BME280;20637;55.770;37.592;2023-11-19T05:18:43;100446.09;;;-2.77;61.19
34374;BME280;20637;55.770;37.592;2023-11-19T05:21:09;100453.47;;;-2.85;61.17
34374;BME280;20637;55.770;37.592;2023-11-19T05:23:34;100458.94;;;-2.90;60.95
34374;BME280;20637;55.770;37.592;2023-11-19T05:29:30;100458.56;;;-2.80;61.05
34374;BME280;20637;55.770;37.592;2023-11-19T05:31:55;100464.69;;;-2.78;61.08
34374;BME280;20637;55.770;37.592;2023-11-19T05:34:21;100467.31;;;-2.78;60.95
34374;BME280;20637;55.770;37.592;2023-11-19T05:36:46;100459.63;;;-2.84;60.72
34374;BME280;20637;55.770;37.592;2023-11-19T05:42:42;100460.34;;;-2.81;60.79
34374;BME280;20637;55.770;37.592;2023-11-19T05:45:08;100457.84;;;-2.84;61.07
34374;BME280;20637;55.770;37.592;2023-11-19T05:47:34;100463.13;;;-2.84;61.47
34374;BME280;20637;55.770;37.592;2023-11-19T05:49:59;100460.31;;;-2.79;60.91
34374;BME280;20637;55.770;37.592;2023-11-19T05:52:25;100455.06;;;-2.81;60.98
34374;BME280;20637;55.770;37.592;2023-11-19T05:54:50;100457.84;;;-2.84;60.62
34374;BME280;20637;55.770;37.592;2023-11-19T05:57:17;100455.25;;;-2.85;60.92
34374;BME280;20637;55.770;37.592;2023-11-19T05:59:49;100460.63;;;-2.87;60.62
34374;BME280;20637;55.770;37.592;2023-11-19T06:02:15;100454.44;;;-2.86;60.87
34374;BME280;20637;55.770;37.592;2023-11-19T06:04:40;100460.69;;;-2.89;60.67
34374;BME280;20637;55.770;37.592;2023-11-19T06:07:08;100458.94;;;-2.90;60.94
34374;BME280;20637;55.770;37.592;2023-11-19T06:09:33;100465.81;;;-2.85;60.46
34374;BME280;20637;55.770;37.592;2023-11-19T06:11:59;100456.06;;;-2.83;60.55
34374;BME280;20637;55.770;37.592;2023-11-19T06:14:27;100455.22;;;-2.84;60.59
34374;BME280;20637;55.770;37.592;2023-11-19T06:16:52;100444.78;;;-2.87;60.15
34374;BME280;20637;55.770;37.592;2023-11-19T06:19:18;100454.53;;;-2.89;60.34
34374;BME280;20637;55.770;37.592;2023-11-19T06:21:43;100447.56;;;-2.90;60.59
34374;BME280;20637;55.770;37.592;2023-11-19T06:24:09;100444.38;;;-2.98;60.03
34374;BME280;20637;55.770;37.592;2023-11-19T06:26:34;100448.91;;;-3.02;60.18
34374;BME280;20637;55.770;37.592;2023-11-19T06:29:00;100449.56;;;-2.97;60.32
34374;BME280;20637;55.770;37.592;2023-11-19T06:31:25;100454.53;;;-2.89;60.34
34374;BME280;20637;55.770;37.592;2023-11-19T06:33:51;100450.66;;;-2.80;60.31
34374;BME280;20637;55.770;37.592;2023-11-19T06:36:16;100445.75;;;-2.69;60.40
34374;BME280;20637;55.770;37.592;2023-11-19T06:38:42;100447.16;;;-2.61;60.19
34374;BME280;20637;55.770;37.592;2023-11-19T06:41:08;100438.47;;;-2.63;60.07
34374;BME280;20637;55.770;37.592;2023-11-19T06:43:34;100435.69;;;-2.60;60.10
34374;BME280;20637;55.770;37.592;2023-11-19T06:46:00;100433.75;;;-2.56;60.33
34374;BME280;20637;55.770;37.592;2023-11-19T06:48:27;100425.41;;;-2.47;60.16
34374;BME280;20637;55.770;37.592;2023-11-19T06:50:52;100427.75;;;-2.39;60.17
34374;BME280;20637;55.770;37.592;2023-11-19T06:53:18;100427.06;;;-2.45;59.82
34374;BME280;20637;55.770;37.592;2023-11-19T06:55:43;100440.53;;;-2.51;59.54
34374;BME280;20637;55.770;37.592;2023-11-19T06:58:09;100437.19;;;-2.54;59.81
34374;BME280;20637;55.770;37.592;2023-11-19T07:00:34;100431.16;;;-2.58;59.60
34374;BME280;20637;55.770;37.592;2023-11-19T07:03:01;100438.47;;;-2.63;59.79
34374;BME280;20637;55.770;37.592;2023-11-19T07:05:26;100442.78;;;-2.62;60.03
34374;BME280;20637;55.770;37.592;2023-11-19T07:07:52;100439.09;;;-2.58;59.73
34374;BME280;20637;55.770;37.592;2023-11-19T07:10:19;100447.03;;;-2.58;59.85
34374;BME280;20637;55.770;37.592;2023-11-19T07:12:44;100441.81;;;-2.59;59.92
34374;BME280;20637;55.770;37.592;2023-11-19T07:15:10;100436.41;;;-2.56;59.99
34374;BME280;20637;55.770;37.592;2023-11-19T07:17:35;100438.97;;;-2.55;60.18
34374;BME280;20637;55.770;37.592;2023-11-19T07:20:01;100437.91;;;-2.51;59.96
34374;BME280;20637;55.770;37.592;2023-11-19T07:22:28;100429.13;;;-2.51;60.10
34374;BME280;20637;55.770;37.592;2023-11-19T07:24:57;100438.03;;;-2.54;60.13
34374;BME280;20637;55.770;37.592;2023-11-19T07:27:22;100442.94;;;-2.65;59.90
34374;BME280;20637;55.770;37.592;2023-11-19T07:29:49;100445.22;;;-2.77;59.96
34374;BME280;20637;55.770;37.592;2023-11-19T07:32:15;100442.28;;;-2.90;60.42
34374;BME280;20637;55.770;37.592;2023-11-19T07:34:40;100454.66;;;-2.92;60.51
34374;BME280;20637;55.770;37.592;2023-11-19T07:37:06;100438.75;;;-2.91;60.47
34374;BME280;20637;55.770;37.592;2023-11-19T07:39:32;100453.03;;;-2.95;60.73
34374;BME280;20637;55.770;37.592;2023-11-19T07:41:58;100437.53;;;-3.04;60.44
34374;BME280;20637;55.770;37.592;2023-11-19T07:44:24;100441.97;;;-3.04;60.77
34374;BME280;20637;55.770;37.592;2023-11-19T07:46:50;100430.63;;;-3.06;60.60
34374;BME280;20637;55.770;37.592;2023-11-19T07:49:15;100433.19;;;-3.05;60.67
34374;BME280;20637;55.770;37.592;2023-11-19T07:51:41;100437.63;;;-3.05;61.07
34374;BME280;20637;55.770;37.592;2023-11-19T07:54:07;100450.69;;;-3.02;60.83
34374;BME280;20637;55.770;37.592;2023-11-19T07:56:33;100440.00;;;-2.99;61.01
34374;BME280;20637;55.770;37.592;2023-11-19T07:59:00;100432.13;;;-3.01;60.57
34374;BME280;20637;55.770;37.592;2023-11-19T08:01:26;100445.41;;;-3.02;60.57
34374;BME280;20637;55.770;37.592;2023-11-19T08:03:51;100447.06;;;-3.00;60.60
34374;BME280;20637;55.770;37.592;2023-11-19T08:06:17;100436.31;;;-2.95;61.00
34374;BME280;20637;55.770;37.592;2023-11-19T08:08:42;100429.16;;;-2.93;60.75
34374;BME280;20637;55.770;37.592;2023-11-19T08:11:08;100432.34;;;-2.85;60.82
34374;BME280;20637;55.770;37.592;2023-11-19T08:13:33;100418.91;;;-2.79;60.45
34374;BME280;20637;55.770;37.592;2023-11-19T08:15:59;100428.31;;;-2.73;60.93
34374;BME280;20637;55.770;37.592;2023-11-19T08:18:24;100423.19;;;-2.76;60.60
34374;BME280;20637;55.770;37.592;2023-11-19T08:20:50;100422.19;;;-2.74;60.59
34374;BME280;20637;55.770;37.592;2023-11-19T08:23:21;100421.44;;;-2.77;60.35
34374;BME280;20637;55.770;37.592;2023-11-19T08:25:48;100415.13;;;-2.73;60.28
34374;BME280;20637;55.770;37.592;2023-11-19T08:28:14;100410.31;;;-2.64;60.35
34374;BME280;20637;55.770;37.592;2023-11-19T08:30:40;100404.81;;;-2.59;60.39
34374;BME280;20637;55.770;37.592;2023-11-19T08:33:05;100405.75;;;-2.60;60.54
34374;BME280;20637;55.770;37.592;2023-11-19T08:35:32;100416.25;;;-2.59;60.31
34374;BME280;20637;55.770;37.592;2023-11-19T08:37:57;100401.31;;;-2.60;60.33
34374;BME280;20637;55.770;37.592;2023-11-19T08:40:24;100406.47;;;-2.57;60.40
34374;BME280;20637;55.770;37.592;2023-11-19T08:42:51;100402.75;;;-2.53;60.56
34374;BME280;20637;55.770;37.592;2023-11-19T08:45:16;100410.03;;;-2.58;60.03
34374;BME280;20637;55.770;37.592;2023-11-19T08:47:42;100410.63;;;-2.71;59.64
34374;BME280;20637;55.770;37.592;2023-11-19T08:50:07;100405.34;;;-2.92;59.76
34374;BME280;20637;55.770;37.592;2023-11-19T08:52:33;100407.44;;;-3.00;60.27
34374;BME280;20637;55.770;37.592;2023-11-19T08:54:59;100406.53;;;-2.99;60.59
34374;BME280;20637;55.770;37.592;2023-11-19T08:57:25;100408.91;;;-2.93;60.82
34374;BME280;20637;55.770;37.592;2023-11-19T08:59:51;100407.78;;;-2.87;60.39
34374;BME280;20637;55.770;37.592;2023-11-19T09:02:16;100415.56;;;-2.84;60.73
34374;BME280;20637;55.770;37.592;2023-11-19T09:04:41;100413.66;;;-2.80;60.71
34374;BME280;20637;55.770;37.592;2023-11-19T09:07:07;100413.22;;;-2.90;60.30
34374;BME280;20637;55.770;37.592;2023-11-19T09:09:35;100400.88;;;-3.11;60.33
34374;BME280;20637;55.770;37.592;2023-11-19T09:12:01;100404.53;;;-3.14;60.56
34374;BME280;20637;55.770;37.592;2023-11-19T09:14:26;100398.94;;;-3.06;61.20
34374;BME280;20637;55.770;37.592;2023-11-19T09:16:52;100397.72;;;-2.99;61.32
34374;BME280;20637;55.770;37.592;2023-11-19T09:19:18;100397.47;;;-2.93;60.78
34374;BME280;20637;55.770;37.592;2023-11-19T09:21:43;100393.91;;;-2.92;61.53
34374;BME280;20637;55.770;37.592;2023-11-19T09:24:09;100394.56;;;-2.87;61.05
34374;BME280;20637;55.770;37.592;2023-11-19T09:26:35;100391.78;;;-2.84;60.88
34374;BME280;20637;55.770;37.592;2023-11-19T09:29:01;100389.50;;;-2.92;60.75
34374;BME280;20637;55.770;37.592;2023-11-19T09:31:27;100382.66;;;-2.97;60.86
34374;BME280;20637;55.770;37.592;2023-11-19T09:33:52;100373.25;;;-3.03;60.60
34374;BME280;20637;55.770;37.592;2023-11-19T09:36:18;100388.41;;;-3.08;61.22
34374;BME280;20637;55.770;37.592;2023-11-19T09:38:44;100377.72;;;-3.05;60.78
34374;BME280;20637;55.770;37.592;2023-11-19T09:41:10;100365.38;;;-3.04;61.20
34374;BME280;20637;55.770;37.592;2023-11-19T09:43:38;100362.69;;;-3.03;61.18
34374;BME280;20637;55.770;37.592;2023-11-19T09:46:05;100360.63;;;-2.96;61.26
34374;BME280;20637;55.770;37.592;2023-11-19T09:48:35;100349.81;;;-2.90;61.14
34374;BME280;20637;55.770;37.592;2023-11-19T09:51:02;100346.03;;;-2.84;61.21
34374;BME280;20637;55.770;37.592;2023-11-19T09:53:28;100344.91;;;-2.79;61.46
34374;BME280;20637;55.770;37.592;2023-11-19T09:55:53;100343.84;;;-2.75;60.99
34374;BME280;20637;55.770;37.592;2023-11-19T09:58:19;100343.56;;;-2.69;61.12
34374;BME280;20637;55.770;37.592;2023-11-19T10:00:44;100342.50;;;-2.65;61.31
34374;BME280;20637;55.770;37.592;2023-11-19T10:03:10;100340.00;;;-2.68;61.06
34374;BME280;20637;55.770;37.592;2023-11-19T10:05:37;100339.28;;;-2.71;61.20
34374;BME280;20637;55.770;37.592;2023-11-19T10:08:04;100346.50;;;-2.75;61.03
34374;BME280;20637;55.770;37.592;2023-11-19T10:10:30;100328.97;;;-2.77;60.90
34374;BME280;20637;55.770;37.592;2023-11-19T10:12:55;100324.53;;;-2.77;61.07
34374;BME280;20637;55.770;37.592;2023-11-19T10:15:22;100336.84;;;-2.76;60.95
34374;BME280;20637;55.770;37.592;2023-11-19T10:17:49;100335.72;;;-2.70;61.26
34374;BME280;20637;55.770;37.592;2023-11-19T10:20:14;100325.06;;;-2.69;61.08
34374;BME280;20637;55.770;37.592;2023-11-19T10:22:40;100316.06;;;-2.65;60.83
34374;BME280;20637;55.770;37.592;2023-11-19T10:25:27;100318.56;;;-2.62;61.14
34374;BME280;20637;55.770;37.592;2023-11-19T10:27:52;100323.00;;;-2.62;60.87
34374;BME280;20637;55.770;37.592;2023-11-19T10:30:27;100318.78;;;-2.66;60.78
34374;BME280;20637;55.770;37.592;2023-11-19T10:33:03;100312.66;;;-2.67;61.16
34374;BME280;20637;55.770;37.592;2023-11-19T10:35:31;100314.28;;;-2.64;61.04
34374;BME280;20637;55.770;37.592;2023-11-19T10:37:58;100302.88;;;-2.65;60.79
34374;BME280;20637;55.770;37.592;2023-11-19T10:40:24;100311.66;;;-2.64;60.52
34374;BME280;20637;55.770;37.592;2023-11-19T10:43:02;100325.56;;;-2.79;59.24
34374;BME280;20637;55.770;37.592;2023-11-19T10:45:28;100319.78;;;-2.89;59.40
34374;BME280;20637;55.770;37.592;2023-11-19T10:47:53;100325.31;;;-2.94;59.78
34374;BME280;20637;55.770;37.592;2023-11-19T10:50:19;100320.94;;;-2.95;59.81
34374;BME280;20637;55.770;37.592;2023-11-19T10:52:45;100325.41;;;-2.97;59.45
34374;BME280;20637;55.770;37.592;2023-11-19T10:55:11;100318.44;;;-2.98;59.74
34374;BME280;20637;55.770;37.592;2023-11-19T10:57:40;100319.16;;;-2.94;59.78
34374;BME280;20637;55.770;37.592;2023-11-19T11:00:09;100322.44;;;-2.89;59.46
34374;BME280;20637;55.770;37.592;2023-11-19T11:02:40;100320.19;;;-2.78;60.13
34374;BME280;20637;55.770;37.592;2023-11-19T11:05:06;100327.84;;;-2.72;58.63
34374;BME280;20637;55.770;37.592;2023-11-19T11:07:33;100315.25;;;-2.85;58.08
34374;BME280;20637;55.770;37.592;2023-11-19T11:09:59;100316.84;;;-3.02;57.53
34374;BME280;20637;55.770;37.592;2023-11-19T11:12:25;100315.28;;;-3.06;58.23
34374;BME280;20637;55.770;37.592;2023-11-19T11:14:51;100317.69;;;-3.01;58.09
34374;BME280;20637;55.770;37.592;2023-11-19T11:17:18;100308.59;;;-2.94;58.34
34374;BME280;20637;55.770;37.592;2023-11-19T11:19:45;100313.66;;;-2.90;58.69
34374;BME280;20637;55.770;37.592;2023-11-19T11:22:11;100310.03;;;-2.87;58.37
34374;BME280;20637;55.770;37.592;2023-11-19T11:28:05;100304.31;;;-2.78;58.60
34374;BME280;20637;55.770;37.592;2023-11-19T11:30:29;100308.84;;;-2.80;58.21
34374;BME280;20637;55.770;37.592;2023-11-19T11:38:23;100302.91;;;-2.66;58.63
34374;BME280;20637;55.770;37.592;2023-11-19T11:49:06;100300.88;;;-2.60;58.43
34374;BME280;20637;55.770;37.592;2023-11-19T12:02:11;100299.69;;;-2.73;57.75
34374;BME280;20637;55.770;37.592;2023-11-19T12:04:38;100296.72;;;-2.65;57.65
34374;BME280;20637;55.770;37.592;2023-11-19T12:09:32;100299.09;;;-2.59;56.82
34374;BME280;20637;55.770;37.592;2023-11-19T12:20:02;100289.50;;;-2.62;57.40
34374;BME280;20637;55.770;37.592;2023-11-19T12:22:28;100298.59;;;-2.67;56.32
34374;BME280;20637;55.770;37.592;2023-11-19T12:24:54;100294.28;;;-2.70;56.81
34374;BME280;20637;55.770;37.592;2023-11-19T12:27:20;100293.16;;;-2.64;57.41
34374;BME280;20637;55.770;37.592;2023-11-19T12:29:48;100287.81;;;-2.63;57.42
34374;BME280;20637;55.770;37.592;2023-11-19T12:32:13;100293.16;;;-2.64;57.53
34374;BME280;20637;55.770;37.592;2023-11-19T12:34:39;100282.44;;;-2.61;57.58
34374;BME280;20637;55.770;37.592;2023-11-19T12:37:04;100281.38;;;-2.57;56.75
34374;BME280;20637;55.770;37.592;2023-11-19T12:39:30;100281.56;;;-2.62;56.41
34374;BME280;20637;55.770;37.592;2023-11-19T12:41:56;100280.16;;;-2.69;56.44
34374;BME280;20637;55.770;37.592;2023-11-19T12:44:24;100279.47;;;-2.74;56.33
34374;BME280;20637;55.770;37.592;2023-11-19T12:47:06;100276.78;;;-2.72;56.31
34374;BME280;20637;55.770;37.592;2023-11-19T12:49:32;100277.44;;;-2.67;56.68
34374;BME280;20637;55.770;37.592;2023-11-19T12:51:58;100264.94;;;-2.64;56.80
34374;BME280;20637;55.770;37.592;2023-11-19T12:54:33;100268.44;;;-2.63;56.20
34374;BME280;20637;55.770;37.592;2023-11-19T12:56:59;100263.22;;;-2.65;56.67
34374;BME280;20637;55.770;37.592;2023-11-19T12:59:24;100258.75;;;-2.63;56.81
34374;BME280;20637;55.770;37.592;2023-11-19T13:01:57;100252.44;;;-2.60;56.74
34374;BME280;20637;55.770;37.592;2023-11-19T13:04:23;100246.16;;;-2.58;56.81
34374;BME280;20637;55.770;37.592;2023-11-19T13:06:49;100254.22;;;-2.61;56.78
34374;BME280;20637;55.770;37.592;2023-11-19T13:09:27;100248.94;;;-2.61;56.96
34374;BME280;20637;55.770;37.592;2023-11-19T13:11:53;100253.31;;;-2.60;57.22
34374;BME280;20637;55.770;37.592;2023-11-19T13:14:19;100249.66;;;-2.57;57.23
34374;BME280;20637;55.770;37.592;2023-11-19T13:16:45;100235.16;;;-2.49;57.07
34374;BME280;20637;55.770;37.592;2023-11-19T13:19:13;100228.00;;;-2.47;57.08
34374;BME280;20637;55.770;37.592;2023-11-19T13:21:39;100228.78;;;-2.45;56.97